sensor_id;sensor_type;location;lat;lon;timestamp;temperature;humidity
2889;DHT22;1453;42.708;23.282;2024-03-02T00:00:14;8.00;99.90
2889;DHT22;1453;42.708;23.282;2024-03-02T00:05:11;8.00;99.90
2889;DHT22;1453;42.708;23.282;2024-03-02T00:07:41;7.90;99.90
2889;DHT22;1453;42.708;23.282;2024-03-02T00:10:10;8.00;99.90
2889;DHT22;1453;42.708;23.282;2024-03-02T00:12:38;8.00;99.90
2889;DHT22;1453;42.708;23.282;2024-03-02T00:18:02;8.00;99.90
2889;DHT22;1453;42.708;23.282;2024-03-02T00:20:29;8.00;99.90
2889;DHT22;1453;42.708;23.282;2024-03-02T00:23:06;8.00;99.90
2889;DHT22;1453;42.708;23.282;2024-03-02T00:25:43;8.10;99.90
2889;DHT22;1453;42.708;23.282;2024-03-02T00:28:17;8.10;99.90
2889;DHT22;1453;42.708;23.282;2024-03-02T00:30:58;8.00;99.90
2889;DHT22;1453;42.708;23.282;2024-03-02T00:33:27;8.00;99.90
2889;DHT22;1453;42.708;23.282;2024-03-02T00:35:56;8.10;99.90
2889;DHT22;1453;42.708;23.282;2024-03-02T00:38:22;8.10;99.90
2889;DHT22;1453;42.708;23.282;2024-03-02T00:40:48;8.10;99.90
2889;DHT22;1453;42.708;23.282;2024-03-02T00:43:53;8.10;99.90
2889;DHT22;1453;42.708;23.282;2024-03-02T00:46:28;8.20;99.90
2889;DHT22;1453;42.708;23.282;2024-03-02T00:48:58;8.20;99.90
2889;DHT22;1453;42.708;23.282;2024-03-02T00:51:27;8.20;99.90
2889;DHT22;1453;42.708;23.282;2024-03-02T00:53:57;8.20;99.90
2889;DHT22;1453;42.708;23.282;2024-03-02T00:56:25;8.20;99.90
2889;DHT22;1453;42.708;23.282;2024-03-02T00:58:52;8.20;99.90
2889;DHT22;1453;42.708;23.282;2024-03-02T01:01:18;8.30;99.90
2889;DHT22;1453;42.708;23.282;2024-03-02T01:03:48;8.30;99.90
2889;DHT22;1453;42.708;23.282;2024-03-02T01:06:17;8.20;99.90
2889;DHT22;1453;42.708;23.282;2024-03-02T01:08:44;8.30;99.90
2889;DHT22;1453;42.708;23.282;2024-03-02T01:11:10;8.30;99.90
2889;DHT22;1453;42.708;23.282;2024-03-02T01:13:36;8.30;99.90
2889;DHT22;1453;42.708;23.282;2024-03-02T01:16:02;8.40;99.90
2889;DHT22;1453;42.708;23.282;2024-03-02T01:18:29;8.40;99.90
2889;DHT22;1453;42.708;23.282;2024-03-02T01:20:56;8.50;99.90
2889;DHT22;1453;42.708;23.282;2024-03-02T01:23:23;8.60;99.90
2889;DHT22;1453;42.708;23.282;2024-03-02T01:25:50;8.60;99.90
2889;DHT22;1453;42.708;23.282;2024-03-02T01:28:18;8.50;99.90
2889;DHT22;1453;42.708;23.282;2024-03-02T01:30:46;8.50;99.90
2889;DHT22;1453;42.708;23.282;2024-03-02T01:33:12;8.50;99.90
2889;DHT22;1453;42.708;23.282;2024-03-02T01:35:38;8.60;99.90
2889;DHT22;1453;42.708;23.282;2024-03-02T01:38:04;8.50;99.90
2889;DHT22;1453;42.708;23.282;2024-03-02T01:40:37;8.50;99.90
2889;DHT22;1453;42.708;23.282;2024-03-02T01:43:06;8.60;99.90
2889;DHT22;1453;42.708;23.282;2024-03-02T01:45:33;8.50;99.90
2889;DHT22;1453;42.708;23.282;2024-03-02T01:48:01;8.40;99.90
2889;DHT22;1453;42.708;23.282;2024-03-02T01:50:29;8.40;99.90
2889;DHT22;1453;42.708;23.282;2024-03-02T01:52:57;8.40;99.90
2889;DHT22;1453;42.708;23.282;2024-03-02T01:55:24;8.30;99.90
2889;DHT22;1453;42.708;23.282;2024-03-02T01:57:51;8.20;99.90
2889;DHT22;1453;42.708;23.282;2024-03-02T02:00:18;8.00;99.90
2889;DHT22;1453;42.708;23.282;2024-03-02T02:02:46;8.00;99.90
2889;DHT22;1453;42.708;23.282;2024-03-02T02:05:13;8.10;99.90
2889;DHT22;1453;42.708;23.282;2024-03-02T02:07:43;8.20;99.90
2889;DHT22;1453;42.708;23.282;2024-03-02T02:10:12;8.30;99.90
2889;DHT22;1453;42.708;23.282;2024-03-02T02:12:38;8.30;99.90
2889;DHT22;1453;42.708;23.282;2024-03-02T02:15:30;8.20;99.90
2889;DHT22;1453;42.708;23.282;2024-03-02T02:17:57;8.20;99.90
2889;DHT22;1453;42.708;23.282;2024-03-02T02:20:24;8.30;99.90
2889;DHT22;1453;42.708;23.282;2024-03-02T02:23:01;8.40;99.90
2889;DHT22;1453;42.708;23.282;2024-03-02T02:25:29;8.20;99.90
2889;DHT22;1453;42.708;23.282;2024-03-02T02:27:55;8.10;99.90
2889;DHT22;1453;42.708;23.282;2024-03-02T02:30:26;8.00;99.90
2889;DHT22;1453;42.708;23.282;2024-03-02T02:32:56;8.00;99.90
2889;DHT22;1453;42.708;23.282;2024-03-02T02:35:22;8.10;99.90
2889;DHT22;1453;42.708;23.282;2024-03-02T02:37:50;8.00;99.90
2889;DHT22;1453;42.708;23.282;2024-03-02T02:40:16;8.10;99.90
2889;DHT22;1453;42.708;23.282;2024-03-02T02:42:44;8.20;99.90
2889;DHT22;1453;42.708;23.282;2024-03-02T02:45:10;8.10;99.90
2889;DHT22;1453;42.708;23.282;2024-03-02T02:47:38;8.20;99.90
2889;DHT22;1453;42.708;23.282;2024-03-02T02:50:06;8.20;99.90
2889;DHT22;1453;42.708;23.282;2024-03-02T02:52:33;8.20;99.90
2889;DHT22;1453;42.708;23.282;2024-03-02T02:55:05;8.20;99.90
2889;DHT22;1453;42.708;23.282;2024-03-02T02:57:33;8.10;99.90
2889;DHT22;1453;42.708;23.282;2024-03-02T03:00:08;8.20;99.90
2889;DHT22;1453;42.708;23.282;2024-03-02T03:02:37;8.30;99.90
2889;DHT22;1453;42.708;23.282;2024-03-02T03:05:05;8.40;99.90
2889;DHT22;1453;42.708;23.282;2024-03-02T03:07:32;8.30;99.90
2889;DHT22;1453;42.708;23.282;2024-03-02T03:09:59;8.30;99.90
2889;DHT22;1453;42.708;23.282;2024-03-02T03:12:25;8.20;99.90
2889;DHT22;1453;42.708;23.282;2024-03-02T03:14:51;8.00;99.90
2889;DHT22;1453;42.708;23.282;2024-03-02T03:17:17;8.00;99.90
2889;DHT22;1453;42.708;23.282;2024-03-02T03:19:43;8.00;99.90
2889;DHT22;1453;42.708;23.282;2024-03-02T03:22:09;8.00;99.90
2889;DHT22;1453;42.708;23.282;2024-03-02T03:24:35;8.10;99.90
2889;DHT22;1453;42.708;23.282;2024-03-02T03:27:01;8.20;99.90
2889;DHT22;1453;42.708;23.282;2024-03-02T03:29:29;8.30;99.90
2889;DHT22;1453;42.708;23.282;2024-03-02T03:32:03;8.30;99.90
2889;DHT22;1453;42.708;23.282;2024-03-02T03:34:33;8.20;99.90
2889;DHT22;1453;42.708;23.282;2024-03-02T03:36:59;8.20;99.90
2889;DHT22;1453;42.708;23.282;2024-03-02T03:39:25;8.10;99.90
2889;DHT22;1453;42.708;23.282;2024-03-02T03:41:51;7.90;99.90
2889;DHT22;1453;42.708;23.282;2024-03-02T03:44:17;7.70;99.90
2889;DHT22;1453;42.708;23.282;2024-03-02T03:46:42;7.80;99.90
2889;DHT22;1453;42.708;23.282;2024-03-02T03:49:08;7.90;99.90
2889;DHT22;1453;42.708;23.282;2024-03-02T03:51:34;7.90;99.90
2889;DHT22;1453;42.708;23.282;2024-03-02T03:54:01;7.90;99.90
2889;DHT22;1453;42.708;23.282;2024-03-02T03:56:27;7.70;99.90
2889;DHT22;1453;42.708;23.282;2024-03-02T03:58:53;7.70;99.90
2889;DHT22;1453;42.708;23.282;2024-03-02T04:01:19;7.70;99.90
2889;DHT22;1453;42.708;23.282;2024-03-02T04:03:45;7.90;99.90
2889;DHT22;1453;42.708;23.282;2024-03-02T04:06:11;7.60;99.90
2889;DHT22;1453;42.708;23.282;2024-03-02T04:08:36;7.60;99.90
2889;DHT22;1453;42.708;23.282;2024-03-02T04:11:02;7.60;99.90
2889;DHT22;1453;42.708;23.282;2024-03-02T04:13:29;7.70;99.90
2889;DHT22;1453;42.708;23.282;2024-03-02T04:15:55;7.60;99.90
2889;DHT22;1453;42.708;23.282;2024-03-02T04:18:21;7.60;99.90
2889;DHT22;1453;42.708;23.282;2024-03-02T04:20:47;7.60;99.90
2889;DHT22;1453;42.708;23.282;2024-03-02T04:23:13;7.70;99.90
2889;DHT22;1453;42.708;23.282;2024-03-02T04:25:38;7.90;99.90
2889;DHT22;1453;42.708;23.282;2024-03-02T04:28:04;7.80;99.90
2889;DHT22;1453;42.708;23.282;2024-03-02T04:30:30;7.80;99.90
2889;DHT22;1453;42.708;23.282;2024-03-02T04:32:56;7.70;99.90
2889;DHT22;1453;42.708;23.282;2024-03-02T04:35:22;7.80;99.90
2889;DHT22;1453;42.708;23.282;2024-03-02T04:37:48;7.80;99.90
2889;DHT22;1453;42.708;23.282;2024-03-02T04:40:14;8.00;99.90
2889;DHT22;1453;42.708;23.282;2024-03-02T04:42:40;8.00;99.90
2889;DHT22;1453;42.708;23.282;2024-03-02T04:45:06;8.10;99.90
2889;DHT22;1453;42.708;23.282;2024-03-02T04:47:33;8.20;99.90
2889;DHT22;1453;42.708;23.282;2024-03-02T04:49:58;8.30;99.90
2889;DHT22;1453;42.708;23.282;2024-03-02T04:52:24;8.20;99.90
2889;DHT22;1453;42.708;23.282;2024-03-02T04:54:50;8.10;99.90
2889;DHT22;1453;42.708;23.282;2024-03-02T04:57:35;8.00;99.90
2889;DHT22;1453;42.708;23.282;2024-03-02T05:00:01;7.70;99.90
2889;DHT22;1453;42.708;23.282;2024-03-02T05:02:27;7.60;99.90
2889;DHT22;1453;42.708;23.282;2024-03-02T05:04:53;7.50;99.90
2889;DHT22;1453;42.708;23.282;2024-03-02T05:07:19;7.50;99.90
2889;DHT22;1453;42.708;23.282;2024-03-02T05:09:45;7.70;99.90
2889;DHT22;1453;42.708;23.282;2024-03-02T05:12:11;7.60;99.90
2889;DHT22;1453;42.708;23.282;2024-03-02T05:15:10;7.50;99.90
2889;DHT22;1453;42.708;23.282;2024-03-02T05:17:38;7.50;99.90
2889;DHT22;1453;42.708;23.282;2024-03-02T05:20:06;7.60;99.90
2889;DHT22;1453;42.708;23.282;2024-03-02T05:22:36;7.50;99.90
2889;DHT22;1453;42.708;23.282;2024-03-02T05:25:03;7.50;99.90
2889;DHT22;1453;42.708;23.282;2024-03-02T05:27:30;7.50;99.90
2889;DHT22;1453;42.708;23.282;2024-03-02T05:29:56;7.60;99.90
2889;DHT22;1453;42.708;23.282;2024-03-02T05:32:23;7.60;99.90
2889;DHT22;1453;42.708;23.282;2024-03-02T05:34:49;7.70;99.90
2889;DHT22;1453;42.708;23.282;2024-03-02T05:37:16;7.70;99.90
2889;DHT22;1453;42.708;23.282;2024-03-02T05:39:43;7.90;99.90
2889;DHT22;1453;42.708;23.282;2024-03-02T05:42:09;7.70;99.90
2889;DHT22;1453;42.708;23.282;2024-03-02T05:44:36;7.80;99.90
2889;DHT22;1453;42.708;23.282;2024-03-02T05:47:02;7.90;99.90
2889;DHT22;1453;42.708;23.282;2024-03-02T05:49:29;8.00;99.90
2889;DHT22;1453;42.708;23.282;2024-03-02T05:51:55;8.10;99.90
2889;DHT22;1453;42.708;23.282;2024-03-02T05:54:21;8.20;99.90
2889;DHT22;1453;42.708;23.282;2024-03-02T05:56:50;8.30;99.90
2889;DHT22;1453;42.708;23.282;2024-03-02T05:59:16;8.20;99.90
2889;DHT22;1453;42.708;23.282;2024-03-02T06:01:43;8.20;99.90
2889;DHT22;1453;42.708;23.282;2024-03-02T06:04:15;8.20;99.90
2889;DHT22;1453;42.708;23.282;2024-03-02T06:06:41;8.20;99.90
2889;DHT22;1453;42.708;23.282;2024-03-02T06:09:08;8.20;99.90
2889;DHT22;1453;42.708;23.282;2024-03-02T06:14:11;8.10;99.90
2889;DHT22;1453;42.708;23.282;2024-03-02T06:16:39;8.10;99.90
2889;DHT22;1453;42.708;23.282;2024-03-02T06:19:05;8.00;99.90
2889;DHT22;1453;42.708;23.282;2024-03-02T06:21:32;8.10;99.90
2889;DHT22;1453;42.708;23.282;2024-03-02T06:23:59;8.10;99.90
2889;DHT22;1453;42.708;23.282;2024-03-02T06:26:24;8.20;99.90
2889;DHT22;1453;42.708;23.282;2024-03-02T06:28:50;8.20;99.90
2889;DHT22;1453;42.708;23.282;2024-03-02T06:31:17;8.20;99.90
2889;DHT22;1453;42.708;23.282;2024-03-02T06:33:43;8.20;99.90
2889;DHT22;1453;42.708;23.282;2024-03-02T06:36:09;8.20;99.90
2889;DHT22;1453;42.708;23.282;2024-03-02T06:38:35;8.30;99.90
2889;DHT22;1453;42.708;23.282;2024-03-02T06:41:01;8.20;99.90
2889;DHT22;1453;42.708;23.282;2024-03-02T06:43:26;8.20;99.90
2889;DHT22;1453;42.708;23.282;2024-03-02T06:45:53;8.00;99.90
2889;DHT22;1453;42.708;23.282;2024-03-02T06:48:19;8.00;99.90
2889;DHT22;1453;42.708;23.282;2024-03-02T06:50:49;8.00;99.90
2889;DHT22;1453;42.708;23.282;2024-03-02T06:53:16;7.90;99.90
2889;DHT22;1453;42.708;23.282;2024-03-02T06:55:45;7.90;99.90
2889;DHT22;1453;42.708;23.282;2024-03-02T06:58:12;7.80;99.90
2889;DHT22;1453;42.708;23.282;2024-03-02T07:00:40;7.70;99.90
2889;DHT22;1453;42.708;23.282;2024-03-02T07:03:07;7.70;99.90
2889;DHT22;1453;42.708;23.282;2024-03-02T07:05:33;7.60;99.90
2889;DHT22;1453;42.708;23.282;2024-03-02T07:07:59;7.60;99.90
2889;DHT22;1453;42.708;23.282;2024-03-02T07:10:27;7.70;99.90
2889;DHT22;1453;42.708;23.282;2024-03-02T07:12:52;7.70;99.90
2889;DHT22;1453;42.708;23.282;2024-03-02T07:15:19;7.80;99.90
2889;DHT22;1453;42.708;23.282;2024-03-02T07:17:54;7.80;99.90
2889;DHT22;1453;42.708;23.282;2024-03-02T07:20:20;7.90;99.90
2889;DHT22;1453;42.708;23.282;2024-03-02T07:22:46;8.00;99.90
2889;DHT22;1453;42.708;23.282;2024-03-02T07:25:12;8.00;99.90
2889;DHT22;1453;42.708;23.282;2024-03-02T07:27:39;8.30;99.90
2889;DHT22;1453;42.708;23.282;2024-03-02T07:30:06;8.30;99.90
2889;DHT22;1453;42.708;23.282;2024-03-02T07:32:32;8.20;99.90
2889;DHT22;1453;42.708;23.282;2024-03-02T07:34:58;8.00;99.90
2889;DHT22;1453;42.708;23.282;2024-03-02T07:37:24;8.20;99.90
2889;DHT22;1453;42.708;23.282;2024-03-02T07:39:50;8.50;99.90
2889;DHT22;1453;42.708;23.282;2024-03-02T07:42:16;8.50;99.90
2889;DHT22;1453;42.708;23.282;2024-03-02T07:44:44;8.50;99.90
2889;DHT22;1453;42.708;23.282;2024-03-02T07:47:11;8.40;99.90
2889;DHT22;1453;42.708;23.282;2024-03-02T07:49:37;8.50;99.90
2889;DHT22;1453;42.708;23.282;2024-03-02T07:52:03;8.50;99.90
2889;DHT22;1453;42.708;23.282;2024-03-02T07:54:29;8.40;99.90
2889;DHT22;1453;42.708;23.282;2024-03-02T07:56:55;8.30;99.90
2889;DHT22;1453;42.708;23.282;2024-03-02T07:59:21;8.40;99.90
2889;DHT22;1453;42.708;23.282;2024-03-02T08:01:48;8.40;99.90
2889;DHT22;1453;42.708;23.282;2024-03-02T08:04:14;8.50;99.90
2889;DHT22;1453;42.708;23.282;2024-03-02T08:06:40;8.40;99.90
2889;DHT22;1453;42.708;23.282;2024-03-02T08:09:06;8.50;99.90
2889;DHT22;1453;42.708;23.282;2024-03-02T08:11:36;8.30;99.90
2889;DHT22;1453;42.708;23.282;2024-03-02T08:14:03;8.30;99.90
2889;DHT22;1453;42.708;23.282;2024-03-02T08:16:29;8.20;99.90
2889;DHT22;1453;42.708;23.282;2024-03-02T08:18:55;8.10;99.90
2889;DHT22;1453;42.708;23.282;2024-03-02T08:21:23;8.10;99.90
2889;DHT22;1453;42.708;23.282;2024-03-02T08:23:50;8.20;99.90
2889;DHT22;1453;42.708;23.282;2024-03-02T08:26:16;8.30;99.90
2889;DHT22;1453;42.708;23.282;2024-03-02T08:28:42;8.20;99.90
2889;DHT22;1453;42.708;23.282;2024-03-02T08:31:08;8.30;99.90
2889;DHT22;1453;42.708;23.282;2024-03-02T08:33:35;8.40;99.90
2889;DHT22;1453;42.708;23.282;2024-03-02T08:36:01;8.30;99.90
2889;DHT22;1453;42.708;23.282;2024-03-02T08:38:28;8.30;99.90
2889;DHT22;1453;42.708;23.282;2024-03-02T08:40:54;8.30;99.90
2889;DHT22;1453;42.708;23.282;2024-03-02T08:43:20;8.30;99.90
2889;DHT22;1453;42.708;23.282;2024-03-02T08:45:48;8.20;99.90
2889;DHT22;1453;42.708;23.282;2024-03-02T08:48:14;8.30;99.90
2889;DHT22;1453;42.708;23.282;2024-03-02T08:50:40;8.40;99.90
2889;DHT22;1453;42.708;23.282;2024-03-02T08:53:06;8.50;99.90
2889;DHT22;1453;42.708;23.282;2024-03-02T08:55:32;8.60;99.90
2889;DHT22;1453;42.708;23.282;2024-03-02T08:57:58;8.50;99.90
2889;DHT22;1453;42.708;23.282;2024-03-02T09:00:25;8.60;99.90
2889;DHT22;1453;42.708;23.282;2024-03-02T09:02:51;8.70;99.90
2889;DHT22;1453;42.708;23.282;2024-03-02T09:05:17;8.70;99.90
2889;DHT22;1453;42.708;23.282;2024-03-02T09:07:43;8.80;99.90
2889;DHT22;1453;42.708;23.282;2024-03-02T09:10:09;9.20;99.90
2889;DHT22;1453;42.708;23.282;2024-03-02T09:12:35;9.50;99.90
2889;DHT22;1453;42.708;23.282;2024-03-02T09:15:02;9.60;99.90
2889;DHT22;1453;42.708;23.282;2024-03-02T09:17:29;9.60;99.90
2889;DHT22;1453;42.708;23.282;2024-03-02T09:19:55;9.60;99.90
2889;DHT22;1453;42.708;23.282;2024-03-02T09:22:21;9.90;99.90
2889;DHT22;1453;42.708;23.282;2024-03-02T09:24:48;10.20;99.90
2889;DHT22;1453;42.708;23.282;2024-03-02T09:27:14;10.10;99.90
2889;DHT22;1453;42.708;23.282;2024-03-02T09:29:40;10.00;99.90
2889;DHT22;1453;42.708;23.282;2024-03-02T09:32:08;10.20;99.90
2889;DHT22;1453;42.708;23.282;2024-03-02T09:34:34;10.20;99.90
2889;DHT22;1453;42.708;23.282;2024-03-02T09:37:00;10.20;99.90
2889;DHT22;1453;42.708;23.282;2024-03-02T09:39:25;10.30;99.90
2889;DHT22;1453;42.708;23.282;2024-03-02T09:41:52;10.40;99.90
2889;DHT22;1453;42.708;23.282;2024-03-02T09:44:19;10.40;99.90
2889;DHT22;1453;42.708;23.282;2024-03-02T09:46:49;10.50;99.90
2889;DHT22;1453;42.708;23.282;2024-03-02T09:49:15;10.50;99.90
2889;DHT22;1453;42.708;23.282;2024-03-02T09:51:41;10.50;99.90
2889;DHT22;1453;42.708;23.282;2024-03-02T09:54:12;10.40;99.90
2889;DHT22;1453;42.708;23.282;2024-03-02T09:56:39;10.40;99.90
2889;DHT22;1453;42.708;23.282;2024-03-02T09:59:05;10.40;99.90
2889;DHT22;1453;42.708;23.282;2024-03-02T10:01:31;10.20;99.90
2889;DHT22;1453;42.708;23.282;2024-03-02T10:04:01;10.10;99.90
2889;DHT22;1453;42.708;23.282;2024-03-02T10:06:28;10.10;99.90
2889;DHT22;1453;42.708;23.282;2024-03-02T10:08:55;10.10;99.90
2889;DHT22;1453;42.708;23.282;2024-03-02T10:11:28;10.00;99.90
2889;DHT22;1453;42.708;23.282;2024-03-02T10:16:40;9.90;99.90
2889;DHT22;1453;42.708;23.282;2024-03-02T10:19:23;10.00;99.90
2889;DHT22;1453;42.708;23.282;2024-03-02T10:21:54;10.00;99.90
2889;DHT22;1453;42.708;23.282;2024-03-02T10:24:21;10.00;99.90
2889;DHT22;1453;42.708;23.282;2024-03-02T10:26:48;10.10;99.90
2889;DHT22;1453;42.708;23.282;2024-03-02T10:29:18;10.10;99.90
2889;DHT22;1453;42.708;23.282;2024-03-02T10:31:45;10.10;99.90
2889;DHT22;1453;42.708;23.282;2024-03-02T10:34:12;10.10;99.90
2889;DHT22;1453;42.708;23.282;2024-03-02T10:36:43;10.10;99.90
2889;DHT22;1453;42.708;23.282;2024-03-02T10:39:13;10.10;99.90
2889;DHT22;1453;42.708;23.282;2024-03-02T10:41:40;10.20;99.90
2889;DHT22;1453;42.708;23.282;2024-03-02T10:44:08;10.30;99.90
2889;DHT22;1453;42.708;23.282;2024-03-02T10:46:37;10.40;99.90
2889;DHT22;1453;42.708;23.282;2024-03-02T10:49:04;10.30;99.90
2889;DHT22;1453;42.708;23.282;2024-03-02T10:51:32;10.20;99.90
2889;DHT22;1453;42.708;23.282;2024-03-02T10:54:00;10.20;99.90
2889;DHT22;1453;42.708;23.282;2024-03-02T10:56:29;10.20;99.90
2889;DHT22;1453;42.708;23.282;2024-03-02T10:59:05;10.30;99.90
2889;DHT22;1453;42.708;23.282;2024-03-02T11:01:42;10.30;99.90
2889;DHT22;1453;42.708;23.282;2024-03-02T11:04:09;10.30;99.90
2889;DHT22;1453;42.708;23.282;2024-03-02T11:06:38;10.20;99.90
2889;DHT22;1453;42.708;23.282;2024-03-02T11:09:07;10.10;99.90
2889;DHT22;1453;42.708;23.282;2024-03-02T11:11:41;10.00;99.90
2889;DHT22;1453;42.708;23.282;2024-03-02T11:14:14;9.70;99.90
2889;DHT22;1453;42.708;23.282;2024-03-02T11:16:42;9.60;99.90
2889;DHT22;1453;42.708;23.282;2024-03-02T11:19:12;9.80;99.90
2889;DHT22;1453;42.708;23.282;2024-03-02T11:21:39;10.10;99.90
2889;DHT22;1453;42.708;23.282;2024-03-02T11:26:50;10.40;99.90
2889;DHT22;1453;42.708;23.282;2024-03-02T11:32:03;10.70;99.90
2889;DHT22;1453;42.708;23.282;2024-03-02T11:34:42;10.80;99.90
2889;DHT22;1453;42.708;23.282;2024-03-02T11:37:16;10.80;99.90
2889;DHT22;1453;42.708;23.282;2024-03-02T11:39:44;10.60;99.90
2889;DHT22;1453;42.708;23.282;2024-03-02T11:42:12;10.80;99.90
2889;DHT22;1453;42.708;23.282;2024-03-02T11:44:50;10.80;99.90
2889;DHT22;1453;42.708;23.282;2024-03-02T11:47:17;10.90;99.90
2889;DHT22;1453;42.708;23.282;2024-03-02T11:49:50;10.80;99.90
2889;DHT22;1453;42.708;23.282;2024-03-02T11:52:20;10.60;99.90
2889;DHT22;1453;42.708;23.282;2024-03-02T11:54:48;10.60;99.90
2889;DHT22;1453;42.708;23.282;2024-03-02T11:57:23;10.80;99.90
2889;DHT22;1453;42.708;23.282;2024-03-02T11:59:49;10.90;99.90
2889;DHT22;1453;42.708;23.282;2024-03-02T12:02:20;10.90;99.90
2889;DHT22;1453;42.708;23.282;2024-03-02T12:04:47;11.00;99.90
2889;DHT22;1453;42.708;23.282;2024-03-02T12:07:23;10.70;99.90
2889;DHT22;1453;42.708;23.282;2024-03-02T12:09:59;10.80;99.90
2889;DHT22;1453;42.708;23.282;2024-03-02T12:12:26;10.80;99.90
2889;DHT22;1453;42.708;23.282;2024-03-02T12:14:53;10.80;99.90
2889;DHT22;1453;42.708;23.282;2024-03-02T12:17:21;10.80;99.90
2889;DHT22;1453;42.708;23.282;2024-03-02T12:19:48;11.00;99.90
2889;DHT22;1453;42.708;23.282;2024-03-02T12:22:14;10.90;99.90
2889;DHT22;1453;42.708;23.282;2024-03-02T12:24:42;11.10;99.90
2889;DHT22;1453;42.708;23.282;2024-03-02T12:27:12;11.00;99.90
2889;DHT22;1453;42.708;23.282;2024-03-02T12:29:38;10.60;99.90
2889;DHT22;1453;42.708;23.282;2024-03-02T12:32:05;10.70;99.90
2889;DHT22;1453;42.708;23.282;2024-03-02T12:34:31;10.90;99.90
2889;DHT22;1453;42.708;23.282;2024-03-02T12:36:57;10.70;99.90
2889;DHT22;1453;42.708;23.282;2024-03-02T12:39:24;10.70;99.90
2889;DHT22;1453;42.708;23.282;2024-03-02T12:41:50;10.70;99.90
2889;DHT22;1453;42.708;23.282;2024-03-02T12:44:20;10.60;99.90
2889;DHT22;1453;42.708;23.282;2024-03-02T12:46:46;10.60;99.90
2889;DHT22;1453;42.708;23.282;2024-03-02T12:49:14;10.60;99.90
2889;DHT22;1453;42.708;23.282;2024-03-02T12:51:43;10.60;99.90
2889;DHT22;1453;42.708;23.282;2024-03-02T12:54:12;10.60;99.90
2889;DHT22;1453;42.708;23.282;2024-03-02T12:56:41;10.80;99.90
2889;DHT22;1453;42.708;23.282;2024-03-02T12:59:21;10.80;99.90
2889;DHT22;1453;42.708;23.282;2024-03-02T13:01:54;10.70;99.90
2889;DHT22;1453;42.708;23.282;2024-03-02T13:04:27;10.80;99.90
2889;DHT22;1453;42.708;23.282;2024-03-02T13:06:55;10.60;99.90
2889;DHT22;1453;42.708;23.282;2024-03-02T13:09:23;10.70;99.90
2889;DHT22;1453;42.708;23.282;2024-03-02T13:11:49;10.80;99.90
2889;DHT22;1453;42.708;23.282;2024-03-02T13:14:16;10.90;99.90
2889;DHT22;1453;42.708;23.282;2024-03-02T13:16:42;10.80;99.90
2889;DHT22;1453;42.708;23.282;2024-03-02T13:19:11;10.80;99.90
2889;DHT22;1453;42.708;23.282;2024-03-02T13:21:37;10.70;99.90
2889;DHT22;1453;42.708;23.282;2024-03-02T13:24:04;10.60;99.90
2889;DHT22;1453;42.708;23.282;2024-03-02T13:26:31;10.50;99.90
2889;DHT22;1453;42.708;23.282;2024-03-02T13:28:57;10.50;99.90
2889;DHT22;1453;42.708;23.282;2024-03-02T13:31:23;10.50;99.90
2889;DHT22;1453;42.708;23.282;2024-03-02T13:33:49;10.40;99.90
2889;DHT22;1453;42.708;23.282;2024-03-02T13:36:15;10.50;99.90
2889;DHT22;1453;42.708;23.282;2024-03-02T13:38:40;10.50;99.90
2889;DHT22;1453;42.708;23.282;2024-03-02T13:41:07;10.50;99.90
2889;DHT22;1453;42.708;23.282;2024-03-02T13:43:33;10.40;99.90
2889;DHT22;1453;42.708;23.282;2024-03-02T13:46:03;10.10;99.90
2889;DHT22;1453;42.708;23.282;2024-03-02T13:48:29;10.30;99.90
2889;DHT22;1453;42.708;23.282;2024-03-02T13:50:57;10.40;99.90
2889;DHT22;1453;42.708;23.282;2024-03-02T13:53:26;10.30;99.90
2889;DHT22;1453;42.708;23.282;2024-03-02T13:55:54;10.20;99.90
2889;DHT22;1453;42.708;23.282;2024-03-02T13:58:20;10.30;99.90
2889;DHT22;1453;42.708;23.282;2024-03-02T14:00:46;10.30;99.90
2889;DHT22;1453;42.708;23.282;2024-03-02T14:03:13;10.40;99.90
2889;DHT22;1453;42.708;23.282;2024-03-02T14:05:38;10.40;99.90
2889;DHT22;1453;42.708;23.282;2024-03-02T14:08:04;10.40;99.90
2889;DHT22;1453;42.708;23.282;2024-03-02T14:10:30;10.50;99.90
2889;DHT22;1453;42.708;23.282;2024-03-02T14:12:56;10.10;99.90
2889;DHT22;1453;42.708;23.282;2024-03-02T14:15:23;10.10;99.90
2889;DHT22;1453;42.708;23.282;2024-03-02T14:17:49;10.20;99.90
2889;DHT22;1453;42.708;23.282;2024-03-02T14:20:15;10.30;99.90
2889;DHT22;1453;42.708;23.282;2024-03-02T14:22:47;10.40;99.90
2889;DHT22;1453;42.708;23.282;2024-03-02T14:25:14;10.40;99.90
2889;DHT22;1453;42.708;23.282;2024-03-02T14:27:40;10.40;99.90
2889;DHT22;1453;42.708;23.282;2024-03-02T14:30:06;10.50;99.90
2889;DHT22;1453;42.708;23.282;2024-03-02T14:32:32;10.50;99.90
2889;DHT22;1453;42.708;23.282;2024-03-02T14:34:58;10.70;99.90
2889;DHT22;1453;42.708;23.282;2024-03-02T14:37:24;11.00;99.90
2889;DHT22;1453;42.708;23.282;2024-03-02T14:39:50;11.10;99.90
2889;DHT22;1453;42.708;23.282;2024-03-02T14:42:16;11.10;99.90
2889;DHT22;1453;42.708;23.282;2024-03-02T14:44:42;11.40;99.90
2889;DHT22;1453;42.708;23.282;2024-03-02T14:47:08;11.70;99.90
2889;DHT22;1453;42.708;23.282;2024-03-02T14:49:34;11.80;99.90
2889;DHT22;1453;42.708;23.282;2024-03-02T14:52:03;11.70;99.90
2889;DHT22;1453;42.708;23.282;2024-03-02T14:54:29;11.50;99.90
2889;DHT22;1453;42.708;23.282;2024-03-02T14:56:55;10.90;99.90
2889;DHT22;1453;42.708;23.282;2024-03-02T14:59:22;10.80;99.90
2889;DHT22;1453;42.708;23.282;2024-03-02T15:01:48;11.10;99.90
2889;DHT22;1453;42.708;23.282;2024-03-02T15:04:14;10.80;99.90
2889;DHT22;1453;42.708;23.282;2024-03-02T15:06:42;10.60;99.90
2889;DHT22;1453;42.708;23.282;2024-03-02T15:09:08;10.70;99.90
2889;DHT22;1453;42.708;23.282;2024-03-02T15:11:34;11.00;99.90
2889;DHT22;1453;42.708;23.282;2024-03-02T15:14:00;11.20;99.90
2889;DHT22;1453;42.708;23.282;2024-03-02T15:16:26;11.20;99.90
2889;DHT22;1453;42.708;23.282;2024-03-02T15:18:53;10.60;99.90
2889;DHT22;1453;42.708;23.282;2024-03-02T15:21:19;10.00;99.90
2889;DHT22;1453;42.708;23.282;2024-03-02T15:23:45;9.60;99.90
2889;DHT22;1453;42.708;23.282;2024-03-02T15:26:11;9.60;99.90
2889;DHT22;1453;42.708;23.282;2024-03-02T15:28:37;9.50;99.90
2889;DHT22;1453;42.708;23.282;2024-03-02T15:31:03;9.50;99.90
2889;DHT22;1453;42.708;23.282;2024-03-02T15:33:30;9.50;99.90
2889;DHT22;1453;42.708;23.282;2024-03-02T15:35:58;9.50;99.90
2889;DHT22;1453;42.708;23.282;2024-03-02T15:38:26;9.50;99.90
2889;DHT22;1453;42.708;23.282;2024-03-02T15:40:52;9.70;99.90
2889;DHT22;1453;42.708;23.282;2024-03-02T15:43:18;10.00;99.90
2889;DHT22;1453;42.708;23.282;2024-03-02T15:45:44;10.30;99.90
2889;DHT22;1453;42.708;23.282;2024-03-02T15:48:10;10.60;99.90
2889;DHT22;1453;42.708;23.282;2024-03-02T15:50:36;10.80;99.90
2889;DHT22;1453;42.708;23.282;2024-03-02T15:53:03;11.00;99.90
2889;DHT22;1453;42.708;23.282;2024-03-02T15:55:32;11.00;99.90
2889;DHT22;1453;42.708;23.282;2024-03-02T15:58:01;11.00;99.90
2889;DHT22;1453;42.708;23.282;2024-03-02T16:00:31;11.20;99.90
2889;DHT22;1453;42.708;23.282;2024-03-02T16:02:57;11.30;99.90
2889;DHT22;1453;42.708;23.282;2024-03-02T16:05:23;11.40;99.90
2889;DHT22;1453;42.708;23.282;2024-03-02T16:07:49;11.40;99.90
2889;DHT22;1453;42.708;23.282;2024-03-02T16:10:15;11.50;99.90
2889;DHT22;1453;42.708;23.282;2024-03-02T16:12:41;11.40;99.90